sensor_id;sensor_type;location;lat;lon;timestamp;P1;durP1;ratioP1;P2;durP2;ratioP2
12776;SDS011;6452;41.572;23.732;2023-03-01T00:00:05;1.45;;;1.40;;
12776;SDS011;6452;41.572;23.732;2023-03-01T00:02:33;1.23;;;1.23;;
12776;SDS011;6452;41.572;23.732;2023-03-01T00:04:59;1.00;;;1.00;;
12776;SDS011;6452;41.572;23.732;2023-03-01T00:07:25;3.75;;;1.20;;
12776;SDS011;6452;41.572;23.732;2023-03-01T00:09:52;1.02;;;1.02;;
12776;SDS011;6452;41.572;23.732;2023-03-01T00:12:19;1.60;;;1.27;;
12776;SDS011;6452;41.572;23.732;2023-03-01T00:14:46;1.40;;;1.30;;
12776;SDS011;6452;41.572;23.732;2023-03-01T00:17:12;1.90;;;1.80;;
12776;SDS011;6452;41.572;23.732;2023-03-01T00:19:38;1.25;;;1.25;;
12776;SDS011;6452;41.572;23.732;2023-03-01T00:22:05;1.85;;;1.75;;
12776;SDS011;6452;41.572;23.732;2023-03-01T00:24:32;1.80;;;1.70;;
12776;SDS011;6452;41.572;23.732;2023-03-01T00:26:59;1.30;;;1.30;;
12776;SDS011;6452;41.572;23.732;2023-03-01T00:29:26;1.80;;;1.70;;
12776;SDS011;6452;41.572;23.732;2023-03-01T00:31:52;1.33;;;1.33;;
12776;SDS011;6452;41.572;23.732;2023-03-01T00:34:19;1.42;;;1.27;;
12776;SDS011;6452;41.572;23.732;2023-03-01T00:36:46;1.30;;;1.30;;
12776;SDS011;6452;41.572;23.732;2023-03-01T00:39:14;1.45;;;1.30;;
12776;SDS011;6452;41.572;23.732;2023-03-01T00:41:41;1.58;;;1.45;;
12776;SDS011;6452;41.572;23.732;2023-03-01T00:44:07;1.70;;;1.60;;
12776;SDS011;6452;41.572;23.732;2023-03-01T00:46:33;1.98;;;1.85;;
12776;SDS011;6452;41.572;23.732;2023-03-01T00:49:00;2.10;;;2.00;;
12776;SDS011;6452;41.572;23.732;2023-03-01T00:51:28;1.83;;;1.73;;
12776;SDS011;6452;41.572;23.732;2023-03-01T00:53:55;1.73;;;1.70;;
12776;SDS011;6452;41.572;23.732;2023-03-01T00:56:24;1.70;;;1.60;;
12776;SDS011;6452;41.572;23.732;2023-03-01T00:58:51;1.73;;;1.60;;
12776;SDS011;6452;41.572;23.732;2023-03-01T01:01:18;2.15;;;1.95;;
12776;SDS011;6452;41.572;23.732;2023-03-01T01:03:49;2.20;;;2.10;;
12776;SDS011;6452;41.572;23.732;2023-03-01T01:06:18;2.00;;;1.90;;
12776;SDS011;6452;41.572;23.732;2023-03-01T01:08:46;1.83;;;1.73;;
12776;SDS011;6452;41.572;23.732;2023-03-01T01:11:14;1.98;;;1.88;;
12776;SDS011;6452;41.572;23.732;2023-03-01T01:13:40;2.63;;;2.25;;
12776;SDS011;6452;41.572;23.732;2023-03-01T01:16:08;3.80;;;3.50;;
12776;SDS011;6452;41.572;23.732;2023-03-01T01:18:34;3.58;;;3.30;;
12776;SDS011;6452;41.572;23.732;2023-03-01T01:21:08;1.75;;;1.40;;
12776;SDS011;6452;41.572;23.732;2023-03-01T01:23:36;1.60;;;1.50;;
12776;SDS011;6452;41.572;23.732;2023-03-01T01:26:04;1.40;;;1.40;;
12776;SDS011;6452;41.572;23.732;2023-03-01T01:28:51;1.45;;;1.45;;
12776;SDS011;6452;41.572;23.732;2023-03-01T01:31:19;1.30;;;1.20;;
12776;SDS011;6452;41.572;23.732;2023-03-01T01:33:49;1.10;;;1.10;;
12776;SDS011;6452;41.572;23.732;2023-03-01T01:36:19;1.15;;;1.15;;
12776;SDS011;6452;41.572;23.732;2023-03-01T01:38:45;2.15;;;1.48;;
12776;SDS011;6452;41.572;23.732;2023-03-01T01:41:12;1.40;;;1.30;;
12776;SDS011;6452;41.572;23.732;2023-03-01T01:43:46;1.05;;;1.05;;
12776;SDS011;6452;41.572;23.732;2023-03-01T01:46:32;1.40;;;1.30;;
12776;SDS011;6452;41.572;23.732;2023-03-01T01:49:16;2.25;;;1.48;;
12776;SDS011;6452;41.572;23.732;2023-03-01T01:52:04;1.90;;;1.80;;
12776;SDS011;6452;41.572;23.732;2023-03-01T01:57:09;1.20;;;1.10;;
12776;SDS011;6452;41.572;23.732;2023-03-01T01:59:42;2.00;;;1.27;;
12776;SDS011;6452;41.572;23.732;2023-03-01T02:02:10;1.23;;;1.20;;
12776;SDS011;6452;41.572;23.732;2023-03-01T02:04:37;1.13;;;1.13;;
12776;SDS011;6452;41.572;23.732;2023-03-01T02:07:10;1.00;;;1.00;;
12776;SDS011;6452;41.572;23.732;2023-03-01T02:09:49;0.90;;;0.90;;
12776;SDS011;6452;41.572;23.732;2023-03-01T02:12:19;1.30;;;1.20;;
12776;SDS011;6452;41.572;23.732;2023-03-01T02:14:48;1.30;;;1.30;;
12776;SDS011;6452;41.572;23.732;2023-03-01T02:17:15;1.60;;;1.50;;
12776;SDS011;6452;41.572;23.732;2023-03-01T02:19:51;1.58;;;1.48;;
12776;SDS011;6452;41.572;23.732;2023-03-01T02:22:37;0.98;;;0.98;;
12776;SDS011;6452;41.572;23.732;2023-03-01T02:30:28;1.30;;;0.60;;
12776;SDS011;6452;41.572;23.732;2023-03-01T02:32:57;0.70;;;0.70;;
12776;SDS011;6452;41.572;23.732;2023-03-01T02:35:45;0.80;;;0.80;;
12776;SDS011;6452;41.572;23.732;2023-03-01T02:38:12;0.80;;;0.80;;
12776;SDS011;6452;41.572;23.732;2023-03-01T02:40:38;0.90;;;0.90;;
12776;SDS011;6452;41.572;23.732;2023-03-01T02:43:07;0.95;;;0.95;;
12776;SDS011;6452;41.572;23.732;2023-03-01T02:45:35;0.90;;;0.90;;
12776;SDS011;6452;41.572;23.732;2023-03-01T02:48:02;0.65;;;0.65;;
12776;SDS011;6452;41.572;23.732;2023-03-01T02:55:46;0.70;;;0.70;;
12776;SDS011;6452;41.572;23.732;2023-03-01T02:58:13;0.80;;;0.80;;
12776;SDS011;6452;41.572;23.732;2023-03-01T03:00:40;0.90;;;0.90;;
12776;SDS011;6452;41.572;23.732;2023-03-01T03:03:13;1.10;;;0.98;;
12776;SDS011;6452;41.572;23.732;2023-03-01T03:05:44;1.75;;;1.35;;
12776;SDS011;6452;41.572;23.732;2023-03-01T03:08:11;1.83;;;1.83;;
12776;SDS011;6452;41.572;23.732;2023-03-01T03:10:44;2.17;;;1.75;;
12776;SDS011;6452;41.572;23.732;2023-03-01T03:13:14;1.92;;;1.55;;
12776;SDS011;6452;41.572;23.732;2023-03-01T03:15:40;1.33;;;1.23;;
12776;SDS011;6452;41.572;23.732;2023-03-01T03:18:09;2.00;;;1.90;;
12776;SDS011;6452;41.572;23.732;2023-03-01T03:20:40;3.67;;;2.20;;
12776;SDS011;6452;41.572;23.732;2023-03-01T03:23:07;2.60;;;2.40;;
12776;SDS011;6452;41.572;23.732;2023-03-01T03:25:34;2.63;;;2.22;;
12776;SDS011;6452;41.572;23.732;2023-03-01T03:28:04;1.52;;;1.45;;
12776;SDS011;6452;41.572;23.732;2023-03-01T03:30:35;3.00;;;1.35;;
12776;SDS011;6452;41.572;23.732;2023-03-01T03:33:07;1.63;;;1.30;;
12776;SDS011;6452;41.572;23.732;2023-03-01T03:35:39;1.20;;;1.20;;
12776;SDS011;6452;41.572;23.732;2023-03-01T03:38:13;1.17;;;1.00;;
12776;SDS011;6452;41.572;23.732;2023-03-01T03:40:42;1.70;;;1.60;;
12776;SDS011;6452;41.572;23.732;2023-03-01T03:43:12;1.90;;;1.80;;
12776;SDS011;6452;41.572;23.732;2023-03-01T03:45:54;3.65;;;2.85;;
12776;SDS011;6452;41.572;23.732;2023-03-01T03:48:22;4.57;;;3.70;;
12776;SDS011;6452;41.572;23.732;2023-03-01T03:50:51;3.95;;;3.55;;
12776;SDS011;6452;41.572;23.732;2023-03-01T03:53:20;5.25;;;4.35;;
12776;SDS011;6452;41.572;23.732;2023-03-01T03:55:47;6.78;;;4.75;;
12776;SDS011;6452;41.572;23.732;2023-03-01T03:58:17;7.20;;;5.88;;
12776;SDS011;6452;41.572;23.732;2023-03-01T04:00:51;13.00;;;8.85;;
12776;SDS011;6452;41.572;23.732;2023-03-01T04:03:25;21.25;;;13.43;;
12776;SDS011;6452;41.572;23.732;2023-03-01T04:05:57;18.80;;;12.75;;
12776;SDS011;6452;41.572;23.732;2023-03-01T04:08:24;20.15;;;13.23;;
12776;SDS011;6452;41.572;23.732;2023-03-01T04:10:51;32.03;;;17.23;;
12776;SDS011;6452;41.572;23.732;2023-03-01T04:13:22;28.90;;;16.58;;
12776;SDS011;6452;41.572;23.732;2023-03-01T04:15:50;27.27;;;16.27;;
12776;SDS011;6452;41.572;23.732;2023-03-01T04:18:18;32.13;;;17.92;;
12776;SDS011;6452;41.572;23.732;2023-03-01T04:20:46;48.47;;;27.75;;
12776;SDS011;6452;41.572;23.732;2023-03-01T04:23:17;66.10;;;38.17;;
12776;SDS011;6452;41.572;23.732;2023-03-01T04:25:58;25.05;;;14.80;;
12776;SDS011;6452;41.572;23.732;2023-03-01T04:31:02;14.40;;;9.68;;
12776;SDS011;6452;41.572;23.732;2023-03-01T04:33:41;24.35;;;16.88;;
12776;SDS011;6452;41.572;23.732;2023-03-01T04:36:12;22.73;;;16.58;;
12776;SDS011;6452;41.572;23.732;2023-03-01T04:38:40;50.03;;;35.40;;
12776;SDS011;6452;41.572;23.732;2023-03-01T04:41:08;60.72;;;42.13;;
12776;SDS011;6452;41.572;23.732;2023-03-01T04:43:35;21.65;;;16.15;;
12776;SDS011;6452;41.572;23.732;2023-03-01T04:46:03;40.10;;;28.77;;
12776;SDS011;6452;41.572;23.732;2023-03-01T04:48:32;45.22;;;30.83;;
12776;SDS011;6452;41.572;23.732;2023-03-01T04:50:59;70.97;;;47.92;;
12776;SDS011;6452;41.572;23.732;2023-03-01T04:53:25;36.08;;;25.60;;
12776;SDS011;6452;41.572;23.732;2023-03-01T04:55:53;54.22;;;38.17;;
12776;SDS011;6452;41.572;23.732;2023-03-01T04:58:24;14.15;;;11.25;;
12776;SDS011;6452;41.572;23.732;2023-03-01T05:00:52;11.10;;;9.70;;
12776;SDS011;6452;41.572;23.732;2023-03-01T05:03:19;5.18;;;4.68;;
12776;SDS011;6452;41.572;23.732;2023-03-01T05:05:49;3.25;;;3.05;;
12776;SDS011;6452;41.572;23.732;2023-03-01T05:08:19;3.45;;;3.20;;
12776;SDS011;6452;41.572;23.732;2023-03-01T05:10:53;3.58;;;3.08;;
12776;SDS011;6452;41.572;23.732;2023-03-01T05:13:37;5.43;;;3.13;;
12776;SDS011;6452;41.572;23.732;2023-03-01T05:16:04;4.43;;;4.10;;
12776;SDS011;6452;41.572;23.732;2023-03-01T05:18:39;3.63;;;3.42;;
12776;SDS011;6452;41.572;23.732;2023-03-01T05:21:08;4.15;;;3.13;;
12776;SDS011;6452;41.572;23.732;2023-03-01T05:23:35;3.90;;;3.60;;
12776;SDS011;6452;41.572;23.732;2023-03-01T05:26:03;7.13;;;6.50;;
12776;SDS011;6452;41.572;23.732;2023-03-01T05:28:32;5.63;;;5.22;;
12776;SDS011;6452;41.572;23.732;2023-03-01T05:30:58;4.70;;;4.30;;
12776;SDS011;6452;41.572;23.732;2023-03-01T05:33:25;7.85;;;6.70;;
12776;SDS011;6452;41.572;23.732;2023-03-01T05:35:51;9.50;;;8.50;;
12776;SDS011;6452;41.572;23.732;2023-03-01T05:38:19;10.93;;;8.30;;
12776;SDS011;6452;41.572;23.732;2023-03-01T05:40:47;6.65;;;5.97;;
12776;SDS011;6452;41.572;23.732;2023-03-01T05:43:14;5.28;;;3.65;;
12776;SDS011;6452;41.572;23.732;2023-03-01T05:45:42;4.07;;;3.78;;
12776;SDS011;6452;41.572;23.732;2023-03-01T05:48:09;8.48;;;5.30;;
12776;SDS011;6452;41.572;23.732;2023-03-01T05:50:43;10.20;;;6.05;;
12776;SDS011;6452;41.572;23.732;2023-03-01T05:53:11;18.92;;;12.77;;
12776;SDS011;6452;41.572;23.732;2023-03-01T05:55:41;11.55;;;9.95;;
12776;SDS011;6452;41.572;23.732;2023-03-01T05:58:11;10.55;;;9.30;;
12776;SDS011;6452;41.572;23.732;2023-03-01T06:00:41;8.63;;;7.55;;
12776;SDS011;6452;41.572;23.732;2023-03-01T06:03:10;10.02;;;7.28;;
12776;SDS011;6452;41.572;23.732;2023-03-01T06:05:38;17.52;;;12.43;;
12776;SDS011;6452;41.572;23.732;2023-03-01T06:08:05;20.80;;;16.50;;
12776;SDS011;6452;41.572;23.732;2023-03-01T06:10:35;17.55;;;14.13;;
12776;SDS011;6452;41.572;23.732;2023-03-01T06:13:02;16.48;;;12.35;;
12776;SDS011;6452;41.572;23.732;2023-03-01T06:15:28;12.30;;;10.18;;
12776;SDS011;6452;41.572;23.732;2023-03-01T06:17:55;13.52;;;9.73;;
12776;SDS011;6452;41.572;23.732;2023-03-01T06:20:23;9.45;;;8.45;;
12776;SDS011;6452;41.572;23.732;2023-03-01T06:22:51;11.10;;;9.07;;
12776;SDS011;6452;41.572;23.732;2023-03-01T06:25:19;22.35;;;17.35;;
12776;SDS011;6452;41.572;23.732;2023-03-01T06:27:46;25.30;;;16.33;;
12776;SDS011;6452;41.572;23.732;2023-03-01T06:32:42;17.83;;;13.48;;
12776;SDS011;6452;41.572;23.732;2023-03-01T06:35:10;21.83;;;14.98;;
12776;SDS011;6452;41.572;23.732;2023-03-01T06:37:37;20.88;;;14.85;;
12776;SDS011;6452;41.572;23.732;2023-03-01T06:40:04;21.23;;;15.10;;
12776;SDS011;6452;41.572;23.732;2023-03-01T06:42:34;12.82;;;10.65;;
12776;SDS011;6452;41.572;23.732;2023-03-01T06:45:01;13.88;;;9.50;;
12776;SDS011;6452;41.572;23.732;2023-03-01T06:47:29;7.93;;;6.72;;
12776;SDS011;6452;41.572;23.732;2023-03-01T06:49:55;8.23;;;7.40;;
12776;SDS011;6452;41.572;23.732;2023-03-01T06:52:21;11.82;;;7.68;;
12776;SDS011;6452;41.572;23.732;2023-03-01T06:54:48;12.00;;;8.75;;
12776;SDS011;6452;41.572;23.732;2023-03-01T06:57:14;9.52;;;7.20;;
12776;SDS011;6452;41.572;23.732;2023-03-01T06:59:41;12.13;;;8.73;;
12776;SDS011;6452;41.572;23.732;2023-03-01T07:02:11;9.00;;;8.10;;
12776;SDS011;6452;41.572;23.732;2023-03-01T07:04:38;18.60;;;13.88;;
12776;SDS011;6452;41.572;23.732;2023-03-01T07:07:04;12.60;;;11.38;;
12776;SDS011;6452;41.572;23.732;2023-03-01T07:09:31;13.52;;;12.13;;
12776;SDS011;6452;41.572;23.732;2023-03-01T07:11:57;13.10;;;11.80;;
12776;SDS011;6452;41.572;23.732;2023-03-01T07:14:23;9.63;;;8.70;;
12776;SDS011;6452;41.572;23.732;2023-03-01T07:16:51;8.52;;;7.65;;
12776;SDS011;6452;41.572;23.732;2023-03-01T07:19:18;11.70;;;10.20;;
12776;SDS011;6452;41.572;23.732;2023-03-01T07:21:45;12.63;;;10.68;;
12776;SDS011;6452;41.572;23.732;2023-03-01T07:24:11;11.90;;;9.65;;
12776;SDS011;6452;41.572;23.732;2023-03-01T07:26:42;9.52;;;8.25;;
12776;SDS011;6452;41.572;23.732;2023-03-01T07:29:09;12.45;;;11.20;;
12776;SDS011;6452;41.572;23.732;2023-03-01T07:31:36;10.13;;;9.13;;
12776;SDS011;6452;41.572;23.732;2023-03-01T07:34:02;5.03;;;4.60;;
12776;SDS011;6452;41.572;23.732;2023-03-01T07:36:32;4.85;;;4.32;;
12776;SDS011;6452;41.572;23.732;2023-03-01T07:38:59;3.35;;;3.08;;
12776;SDS011;6452;41.572;23.732;2023-03-01T07:41:27;3.22;;;2.97;;
12776;SDS011;6452;41.572;23.732;2023-03-01T07:43:54;2.28;;;2.15;;
12776;SDS011;6452;41.572;23.732;2023-03-01T07:46:21;2.53;;;2.38;;
12776;SDS011;6452;41.572;23.732;2023-03-01T07:51:54;3.47;;;3.00;;
12776;SDS011;6452;41.572;23.732;2023-03-01T07:54:21;3.20;;;3.00;;
12776;SDS011;6452;41.572;23.732;2023-03-01T07:56:48;5.25;;;3.35;;
12776;SDS011;6452;41.572;23.732;2023-03-01T07:59:14;3.65;;;3.13;;
12776;SDS011;6452;41.572;23.732;2023-03-01T08:01:40;2.38;;;2.28;;
12776;SDS011;6452;41.572;23.732;2023-03-01T08:04:11;2.78;;;2.58;;
12776;SDS011;6452;41.572;23.732;2023-03-01T08:06:37;2.90;;;2.70;;
12776;SDS011;6452;41.572;23.732;2023-03-01T08:09:04;3.67;;;3.38;;
12776;SDS011;6452;41.572;23.732;2023-03-01T08:11:31;3.97;;;3.67;;
12776;SDS011;6452;41.572;23.732;2023-03-01T08:13:57;5.80;;;4.82;;
12776;SDS011;6452;41.572;23.732;2023-03-01T08:16:23;3.88;;;3.58;;
12776;SDS011;6452;41.572;23.732;2023-03-01T08:18:50;3.72;;;3.42;;
12776;SDS011;6452;41.572;23.732;2023-03-01T08:21:17;2.80;;;2.60;;
12776;SDS011;6452;41.572;23.732;2023-03-01T08:23:44;3.28;;;3.08;;
12776;SDS011;6452;41.572;23.732;2023-03-01T08:26:17;5.60;;;3.90;;
12776;SDS011;6452;41.572;23.732;2023-03-01T08:28:46;2.85;;;2.00;;
12776;SDS011;6452;41.572;23.732;2023-03-01T08:31:13;2.50;;;2.30;;
12776;SDS011;6452;41.572;23.732;2023-03-01T08:33:41;2.13;;;2.03;;
12776;SDS011;6452;41.572;23.732;2023-03-01T08:36:07;3.83;;;1.90;;
12776;SDS011;6452;41.572;23.732;2023-03-01T08:38:34;2.17;;;2.08;;
12776;SDS011;6452;41.572;23.732;2023-03-01T08:41:01;1.70;;;1.60;;
12776;SDS011;6452;41.572;23.732;2023-03-01T08:43:29;1.85;;;1.75;;
12776;SDS011;6452;41.572;23.732;2023-03-01T08:45:56;4.20;;;2.35;;
12776;SDS011;6452;41.572;23.732;2023-03-01T08:48:22;3.53;;;2.30;;
12776;SDS011;6452;41.572;23.732;2023-03-01T08:50:53;3.88;;;1.83;;
12776;SDS011;6452;41.572;23.732;2023-03-01T08:53:19;2.80;;;1.90;;
12776;SDS011;6452;41.572;23.732;2023-03-01T08:55:46;4.55;;;2.10;;
12776;SDS011;6452;41.572;23.732;2023-03-01T08:58:16;1.27;;;1.27;;
12776;SDS011;6452;41.572;23.732;2023-03-01T09:00:42;4.13;;;2.22;;
12776;SDS011;6452;41.572;23.732;2023-03-01T09:03:08;1.60;;;1.60;;
12776;SDS011;6452;41.572;23.732;2023-03-01T09:05:35;2.10;;;1.90;;
12776;SDS011;6452;41.572;23.732;2023-03-01T09:08:02;2.92;;;2.20;;
12776;SDS011;6452;41.572;23.732;2023-03-01T09:10:29;3.17;;;2.95;;
12776;SDS011;6452;41.572;23.732;2023-03-01T09:12:55;3.30;;;3.10;;
12776;SDS011;6452;41.572;23.732;2023-03-01T09:15:21;2.47;;;2.30;;
12776;SDS011;6452;41.572;23.732;2023-03-01T09:17:47;3.70;;;3.40;;
12776;SDS011;6452;41.572;23.732;2023-03-01T09:20:13;10.40;;;4.68;;
12776;SDS011;6452;41.572;23.732;2023-03-01T09:22:41;5.28;;;4.78;;
12776;SDS011;6452;41.572;23.732;2023-03-01T09:25:09;4.90;;;4.00;;
12776;SDS011;6452;41.572;23.732;2023-03-01T09:27:35;12.23;;;8.85;;
12776;SDS011;6452;41.572;23.732;2023-03-01T09:30:01;8.85;;;6.45;;
12776;SDS011;6452;41.572;23.732;2023-03-01T09:32:29;11.27;;;9.48;;
12776;SDS011;6452;41.572;23.732;2023-03-01T09:34:55;7.05;;;5.80;;
12776;SDS011;6452;41.572;23.732;2023-03-01T09:37:32;8.95;;;6.15;;
12776;SDS011;6452;41.572;23.732;2023-03-01T09:39:59;8.45;;;5.75;;
12776;SDS011;6452;41.572;23.732;2023-03-01T09:42:26;12.50;;;5.80;;
12776;SDS011;6452;41.572;23.732;2023-03-01T09:47:27;9.80;;;6.65;;
12776;SDS011;6452;41.572;23.732;2023-03-01T09:52:42;11.18;;;6.55;;
12776;SDS011;6452;41.572;23.732;2023-03-01T09:55:13;4.20;;;3.80;;
12776;SDS011;6452;41.572;23.732;2023-03-01T10:03:16;5.25;;;4.20;;
12776;SDS011;6452;41.572;23.732;2023-03-01T10:05:50;4.85;;;4.07;;
12776;SDS011;6452;41.572;23.732;2023-03-01T10:11:42;4.82;;;4.22;;
12776;SDS011;6452;41.572;23.732;2023-03-01T10:16:50;4.57;;;3.67;;
12776;SDS011;6452;41.572;23.732;2023-03-01T10:19:23;4.35;;;3.92;;
12776;SDS011;6452;41.572;23.732;2023-03-01T10:21:50;9.00;;;4.38;;
12776;SDS011;6452;41.572;23.732;2023-03-01T10:24:17;3.80;;;3.50;;
12776;SDS011;6452;41.572;23.732;2023-03-01T10:26:50;3.97;;;3.40;;
12776;SDS011;6452;41.572;23.732;2023-03-01T10:29:23;3.50;;;3.20;;
12776;SDS011;6452;41.572;23.732;2023-03-01T10:31:51;5.45;;;3.15;;
12776;SDS011;6452;41.572;23.732;2023-03-01T10:36:51;2.53;;;2.40;;
12776;SDS011;6452;41.572;23.732;2023-03-01T10:39:22;5.43;;;3.80;;
12776;SDS011;6452;41.572;23.732;2023-03-01T10:41:52;3.50;;;3.20;;
12776;SDS011;6452;41.572;23.732;2023-03-01T10:44:41;3.10;;;2.80;;
12776;SDS011;6452;41.572;23.732;2023-03-01T10:47:12;3.83;;;2.80;;
12776;SDS011;6452;41.572;23.732;2023-03-01T10:49:59;3.85;;;3.53;;
12776;SDS011;6452;41.572;23.732;2023-03-01T10:52:26;4.07;;;3.58;;
12776;SDS011;6452;41.572;23.732;2023-03-01T10:54:57;4.15;;;3.42;;
12776;SDS011;6452;41.572;23.732;2023-03-01T10:57:31;2.90;;;2.80;;
12776;SDS011;6452;41.572;23.732;2023-03-01T11:00:24;2.92;;;2.38;;
12776;SDS011;6452;41.572;23.732;2023-03-01T11:03:31;2.42;;;2.25;;
12776;SDS011;6452;41.572;23.732;2023-03-01T11:05:37;4.55;;;2.60;;
12776;SDS011;6452;41.572;23.732;2023-03-01T11:08:15;7.82;;;4.43;;
12776;SDS011;6452;41.572;23.732;2023-03-01T11:11:02;4.00;;;3.60;;
12776;SDS011;6452;41.572;23.732;2023-03-01T11:13:31;5.05;;;2.78;;
12776;SDS011;6452;41.572;23.732;2023-03-01T11:16:02;3.40;;;3.10;;
12776;SDS011;6452;41.572;23.732;2023-03-01T11:18:29;5.22;;;3.65;;
12776;SDS011;6452;41.572;23.732;2023-03-01T11:20:56;4.47;;;3.22;;
12776;SDS011;6452;41.572;23.732;2023-03-01T11:23:24;3.20;;;3.00;;
12776;SDS011;6452;41.572;23.732;2023-03-01T11:26:00;2.72;;;2.53;;
12776;SDS011;6452;41.572;23.732;2023-03-01T11:28:27;4.85;;;2.50;;
12776;SDS011;6452;41.572;23.732;2023-03-01T11:33:31;6.15;;;3.08;;
12776;SDS011;6452;41.572;23.732;2023-03-01T11:36:05;5.13;;;2.85;;
12776;SDS011;6452;41.572;23.732;2023-03-01T11:38:40;3.83;;;3.53;;
12776;SDS011;6452;41.572;23.732;2023-03-01T11:41:13;3.83;;;3.45;;
12776;SDS011;6452;41.572;23.732;2023-03-01T11:59:35;4.07;;;3.38;;
12776;SDS011;6452;41.572;23.732;2023-03-01T12:07:39;3.92;;;3.63;;
12776;SDS011;6452;41.572;23.732;2023-03-01T12:24:15;5.00;;;4.55;;
12776;SDS011;6452;41.572;23.732;2023-03-01T12:29:55;7.68;;;4.85;;
12776;SDS011;6452;41.572;23.732;2023-03-01T12:35:27;5.68;;;4.53;;
12776;SDS011;6452;41.572;23.732;2023-03-01T12:38:08;5.05;;;4.32;;
12776;SDS011;6452;41.572;23.732;2023-03-01T12:43:31;8.73;;;4.05;;
12776;SDS011;6452;41.572;23.732;2023-03-01T12:46:23;4.47;;;3.90;;
12776;SDS011;6452;41.572;23.732;2023-03-01T12:49:16;5.45;;;4.30;;
12776;SDS011;6452;41.572;23.732;2023-03-01T12:51:53;4.63;;;4.00;;
12776;SDS011;6452;41.572;23.732;2023-03-01T12:54:29;5.50;;;4.00;;
12776;SDS011;6452;41.572;23.732;2023-03-01T12:57:01;5.80;;;3.90;;
12776;SDS011;6452;41.572;23.732;2023-03-01T13:02:13;4.53;;;3.60;;
12776;SDS011;6452;41.572;23.732;2023-03-01T13:04:53;10.27;;;4.07;;
12776;SDS011;6452;41.572;23.732;2023-03-01T13:07:40;4.63;;;3.97;;
12776;SDS011;6452;41.572;23.732;2023-03-01T13:10:21;7.30;;;4.00;;
12776;SDS011;6452;41.572;23.732;2023-03-01T13:15:37;4.85;;;4.45;;
12776;SDS011;6452;41.572;23.732;2023-03-01T13:26:14;5.15;;;3.78;;
12776;SDS011;6452;41.572;23.732;2023-03-01T13:31:11;5.45;;;4.25;;
12776;SDS011;6452;41.572;23.732;2023-03-01T13:33:56;15.88;;;4.10;;
12776;SDS011;6452;41.572;23.732;2023-03-01T13:57:39;10.48;;;9.43;;
12776;SDS011;6452;41.572;23.732;2023-03-01T14:00:46;11.57;;;8.05;;
12776;SDS011;6452;41.572;23.732;2023-03-01T14:03:16;9.68;;;7.43;;
12776;SDS011;6452;41.572;23.732;2023-03-01T14:05:57;14.82;;;8.00;;
12776;SDS011;6452;41.572;23.732;2023-03-01T14:08:31;11.88;;;6.20;;
12776;SDS011;6452;41.572;23.732;2023-03-01T14:24:52;16.92;;;9.23;;
12776;SDS011;6452;41.572;23.732;2023-03-01T14:27:21;9.30;;;7.05;;
12776;SDS011;6452;41.572;23.732;2023-03-01T14:29:56;9.07;;;7.00;;
12776;SDS011;6452;41.572;23.732;2023-03-01T14:32:29;12.88;;;8.35;;
12776;SDS011;6452;41.572;23.732;2023-03-01T14:34:56;12.95;;;8.85;;
12776;SDS011;6452;41.572;23.732;2023-03-01T14:37:31;9.95;;;8.95;;
12776;SDS011;6452;41.572;23.732;2023-03-01T14:40:03;10.88;;;8.73;;
12776;SDS011;6452;41.572;23.732;2023-03-01T14:42:35;12.48;;;8.25;;
12776;SDS011;6452;41.572;23.732;2023-03-01T14:45:03;15.10;;;9.05;;
12776;SDS011;6452;41.572;23.732;2023-03-01T14:47:33;13.57;;;9.43;;
12776;SDS011;6452;41.572;23.732;2023-03-01T14:50:08;9.40;;;6.70;;
12776;SDS011;6452;41.572;23.732;2023-03-01T14:52:39;15.43;;;6.75;;
12776;SDS011;6452;41.572;23.732;2023-03-01T14:55:19;11.40;;;6.45;;
12776;SDS011;6452;41.572;23.732;2023-03-01T15:01:17;7.82;;;6.03;;
12776;SDS011;6452;41.572;23.732;2023-03-01T15:03:46;11.02;;;5.63;;
12776;SDS011;6452;41.572;23.732;2023-03-01T15:06:14;7.80;;;6.18;;
12776;SDS011;6452;41.572;23.732;2023-03-01T15:08:42;9.40;;;6.50;;
12776;SDS011;6452;41.572;23.732;2023-03-01T15:11:23;5.80;;;5.20;;
12776;SDS011;6452;41.572;23.732;2023-03-01T15:13:52;6.78;;;4.93;;
12776;SDS011;6452;41.572;23.732;2023-03-01T15:16:22;10.15;;;5.13;;
12776;SDS011;6452;41.572;23.732;2023-03-01T15:18:51;5.72;;;4.45;;
12776;SDS011;6452;41.572;23.732;2023-03-01T15:23:55;8.65;;;6.43;;
12776;SDS011;6452;41.572;23.732;2023-03-01T15:26:29;9.10;;;7.68;;
12776;SDS011;6452;41.572;23.732;2023-03-01T15:29:03;11.43;;;7.25;;
12776;SDS011;6452;41.572;23.732;2023-03-01T15:31:32;9.02;;;7.47;;
12776;SDS011;6452;41.572;23.732;2023-03-01T15:34:23;9.60;;;7.57;;
12776;SDS011;6452;41.572;23.732;2023-03-01T15:36:53;9.20;;;6.20;;
12776;SDS011;6452;41.572;23.732;2023-03-01T15:41:58;9.18;;;5.43;;
12776;SDS011;6452;41.572;23.732;2023-03-01T15:44:25;16.27;;;9.32;;
12776;SDS011;6452;41.572;23.732;2023-03-01T15:46:54;9.25;;;6.60;;
12776;SDS011;6452;41.572;23.732;2023-03-01T15:52:00;48.40;;;29.88;;
12776;SDS011;6452;41.572;23.732;2023-03-01T15:54:27;47.50;;;32.00;;
12776;SDS011;6452;41.572;23.732;2023-03-01T15:56:55;46.40;;;33.15;;
12776;SDS011;6452;41.572;23.732;2023-03-01T15:59:20;54.20;;;34.05;;
12776;SDS011;6452;41.572;23.732;2023-03-01T16:01:48;58.47;;;41.28;;
12776;SDS011;6452;41.572;23.732;2023-03-01T16:04:16;62.25;;;41.42;;
12776;SDS011;6452;41.572;23.732;2023-03-01T16:06:48;73.88;;;48.88;;
12776;SDS011;6452;41.572;23.732;2023-03-01T16:09:25;45.55;;;33.20;;
12776;SDS011;6452;41.572;23.732;2023-03-01T16:11:56;32.83;;;25.85;;
12776;SDS011;6452;41.572;23.732;2023-03-01T16:14:22;31.30;;;21.88;;
12776;SDS011;6452;41.572;23.732;2023-03-01T16:16:48;34.10;;;25.17;;
12776;SDS011;6452;41.572;23.732;2023-03-01T16:19:15;31.77;;;22.67;;
12776;SDS011;6452;41.572;23.732;2023-03-01T16:21:42;18.98;;;12.63;;
12776;SDS011;6452;41.572;23.732;2023-03-01T16:24:14;39.42;;;29.80;;
12776;SDS011;6452;41.572;23.732;2023-03-01T16:26:42;40.83;;;29.85;;
12776;SDS011;6452;41.572;23.732;2023-03-01T16:29:08;28.80;;;25.65;;
12776;SDS011;6452;41.572;23.732;2023-03-01T16:31:34;32.42;;;26.92;;
12776;SDS011;6452;41.572;23.732;2023-03-01T16:34:00;35.45;;;26.38;;
12776;SDS011;6452;41.572;23.732;2023-03-01T16:36:31;35.00;;;25.52;;
12776;SDS011;6452;41.572;23.732;2023-03-01T16:38:57;36.15;;;27.15;;
12776;SDS011;6452;41.572;23.732;2023-03-01T16:41:26;30.95;;;24.10;;
12776;SDS011;6452;41.572;23.732;2023-03-01T16:43:53;37.47;;;30.15;;
12776;SDS011;6452;41.572;23.732;2023-03-01T16:46:20;32.10;;;24.73;;
12776;SDS011;6452;41.572;23.732;2023-03-01T16:48:47;35.50;;;24.83;;
12776;SDS011;6452;41.572;23.732;2023-03-01T16:51:13;46.97;;;32.33;;
12776;SDS011;6452;41.572;23.732;2023-03-01T16:53:39;43.20;;;32.60;;
12776;SDS011;6452;41.572;23.732;2023-03-01T16:56:07;35.47;;;27.58;;
12776;SDS011;6452;41.572;23.732;2023-03-01T16:58:35;68.28;;;47.65;;
12776;SDS011;6452;41.572;23.732;2023-03-01T17:01:06;74.82;;;54.58;;
12776;SDS011;6452;41.572;23.732;2023-03-01T17:03:52;73.45;;;52.15;;
12776;SDS011;6452;41.572;23.732;2023-03-01T17:06:20;69.32;;;51.58;;
12776;SDS011;6452;41.572;23.732;2023-03-01T17:08:47;50.42;;;38.65;;
12776;SDS011;6452;41.572;23.732;2023-03-01T17:11:16;44.13;;;32.03;;
12776;SDS011;6452;41.572;23.732;2023-03-01T17:13:44;65.40;;;45.95;;
12776;SDS011;6452;41.572;23.732;2023-03-01T17:16:12;68.82;;;48.13;;
12776;SDS011;6452;41.572;23.732;2023-03-01T17:18:39;71.95;;;48.42;;
12776;SDS011;6452;41.572;23.732;2023-03-01T17:21:06;74.10;;;52.28;;
12776;SDS011;6452;41.572;23.732;2023-03-01T17:23:38;67.57;;;50.63;;
12776;SDS011;6452;41.572;23.732;2023-03-01T17:26:04;69.22;;;50.10;;